CheckWX is a tool to help pilots better visualize weather data.  It is not intended as a substitute for an official pre-flight weather briefing.

02:35:24 UTC

KEYE METAR
Eagle Creek Airpark
Indianapolis, Indiana, USA
Current

22 mins ago

KEYE 180213Z AUTO 27008KT 10SM OVC011 M01/M03 A2984 RMK AO2 T10061028
Observed
Feb-18 @ 02:13 UTC
Wind
  • 270° at 8 KTS
Visibility
10 SM
Flight Rules
MVFR
Cloud Levels
  • Overcast at 1,100' AGL
Temperature
-1°C / 30°F
Dewpoint
-3°C / 27°F
Humidity
86%
Altimeter
29.84" Hg
Pressure
1010.52 hPa
Previous

42 mins ago

KEYE 180153Z AUTO 27008KT 8SM BKN009 OVC013 M01/M02 A2984 RMK AO2 CIG 007V011 SLP112 T10061022
Observed
Feb-18 @ 01:53 UTC
Wind
  • 270° at 8 KTS
Visibility
8 SM
Flight Rules
IFR
Cloud Levels
  • Broken at 900' AGL
  • Overcast at 1,300' AGL
Temperature
-1°C / 30°F
Dewpoint
-2°C / 28°F
Humidity
93%
Altimeter
29.84" Hg
Pressure
1011.2 hPa
Previous

2 hours ago

KEYE 180053Z AUTO 26007KT 4SM BR OVC007 M01/M02 A2982 RMK AO2 SLP105 I1001 T10061022
Observed
Feb-18 @ 00:53 UTC
Wind
  • 260° at 7 KTS
Visibility
4 SM
Flight Rules
IFR
Conditions
Mist
Cloud Levels
  • Overcast at 700' AGL
Temperature
-1°C / 30°F
Dewpoint
-2°C / 28°F
Humidity
93%
Altimeter
29.82" Hg
Pressure
1010.5 hPa